Main page
METAR-TAF:

METAR-TAF

Airports :

Capitán de Corbeta Carlos A. Curbelo International Airport

Punta del Este, Uruguay

latitude: 34-52S, longitude: 055-06W, elevation: 30 m

Current weather observation

The report was made 50 minutes ago, at 03:00 UTC
Wind 6 kt from the East/Northeast, varying between North/Northeast and East
Temperature 16°C
Humidity 82%
Pressure 1017 hPa
Visibility 10 km or more
no clouds below 1500 m and no cumulonimbus

METAR: SULS 030300Z 06006KT 020V100 CAVOK 16/13 Q1017

Time: 00:50 (03:50 UTC)

Forecast

The report was made 4 hours and 20 minutes ago, at 23:30 UTC
Forecast valid from 03 at 00 UTC to 03 at 24 UTC
Wind 10 kt from the East
Visibility 10 km or more
Scattered clouds at a height of 2300 ft
Becoming
from 03 at 01 UTC to 03 at 03 UTC
Wind 10 kt from the North/Northeast
Becoming
from 03 at 13 UTC to 03 at 15 UTC
Wind 15 kt from the East

TAF: SULS 022330Z 0300/0324 10010KT 9999 SCT023 TX23/0318Z TN12/0309Z BECMG 0301/0303 03010KT BECMG 0313/0315 10015KT

Weather observations and forecasts of more than 4000 airports (METAR and TAF reports).

The available stations are represented by yellow and red dots on the map.

Hover mouse over dot to see the name of the station.

Then click to see weather observations and forecasts.

To change the map : click on the green buttons with a black cross to zoom in, on the green button with a dash to zoom out, or on the green arrows for adjacent maps.


METAR-TAF: